sensor_id;sensor_type;location;lat;lon;timestamp;pressure;altitude;pressure_sealevel;temperature;humidity
76732;BME280;65656;51.130;13.658;2023-04-08T00:00:36;99675.06;;;2.82;100.00
76732;BME280;65656;51.130;13.658;2023-04-08T00:04:37;99671.31;;;2.83;100.00
76732;BME280;65656;51.130;13.658;2023-04-08T00:08:39;99665.91;;;2.83;100.00
76732;BME280;65656;51.130;13.658;2023-04-08T00:12:42;99674.28;;;2.88;100.00
76732;BME280;65656;51.130;13.658;2023-04-08T00:16:44;99666.16;;;2.88;100.00
76732;BME280;65656;51.130;13.658;2023-04-08T00:20:45;99671.13;;;2.84;100.00
76732;BME280;65656;51.130;13.658;2023-04-08T00:24:46;99664.31;;;2.88;100.00
76732;BME280;65656;51.130;13.658;2023-04-08T00:28:49;99662.19;;;2.84;100.00
76732;BME280;65656;51.130;13.658;2023-04-08T00:32:51;99662.19;;;2.84;100.00
76732;BME280;65656;51.130;13.658;2023-04-08T00:36:53;99659.47;;;2.84;100.00
76732;BME280;65656;51.130;13.658;2023-04-08T00:40:54;99667.78;;;2.82;100.00
76732;BME280;65656;51.130;13.658;2023-04-08T00:44:57;99673.63;;;2.86;100.00
76732;BME280;65656;51.130;13.658;2023-04-08T00:48:58;99675.97;;;2.89;100.00
76732;BME280;65656;51.130;13.658;2023-04-08T00:53:00;99673.91;;;2.91;100.00
76732;BME280;65656;51.130;13.658;2023-04-08T00:57:02;99673.97;;;2.97;100.00
76732;BME280;65656;51.130;13.658;2023-04-08T01:01:09;99668.09;;;2.94;100.00
76732;BME280;65656;51.130;13.658;2023-04-08T01:05:14;99667.31;;;3.00;100.00
76732;BME280;65656;51.130;13.658;2023-04-08T01:09:20;99664.47;;;3.08;100.00
76732;BME280;65656;51.130;13.658;2023-04-08T01:13:25;99655.72;;;3.06;100.00
76732;BME280;65656;51.130;13.658;2023-04-08T01:17:30;99664.88;;;3.05;100.00
76732;BME280;65656;51.130;13.658;2023-04-08T01:21:34;99656.13;;;3.10;100.00
76732;BME280;65656;51.130;13.658;2023-04-08T01:25:37;99658.66;;;3.11;100.00
76732;BME280;65656;51.130;13.658;2023-04-08T01:29:40;99654.94;;;3.12;100.00
76732;BME280;65656;51.130;13.658;2023-04-08T01:33:43;99652.03;;;3.14;100.00
76732;BME280;65656;51.130;13.658;2023-04-08T01:37:46;99652.44;;;3.17;100.00
76732;BME280;65656;51.130;13.658;2023-04-08T01:41:49;99655.78;;;3.13;100.00
76732;BME280;65656;51.130;13.658;2023-04-08T01:45:55;99650.00;;;3.22;100.00
76732;BME280;65656;51.130;13.658;2023-04-08T01:49:57;99658.97;;;3.23;100.00
76732;BME280;65656;51.130;13.658;2023-04-08T01:53:59;99660.84;;;3.22;100.00
76732;BME280;65656;51.130;13.658;2023-04-08T01:58:01;99657.50;;;3.20;100.00
76732;BME280;65656;51.130;13.658;2023-04-08T02:02:08;99665.41;;;3.22;100.00
76732;BME280;65656;51.130;13.658;2023-04-08T02:06:10;99658.75;;;3.24;100.00
76732;BME280;65656;51.130;13.658;2023-04-08T02:10:11;99661.25;;;3.26;100.00
76732;BME280;65656;51.130;13.658;2023-04-08T02:14:13;99670.63;;;3.23;100.00
76732;BME280;65656;51.130;13.658;2023-04-08T02:18:21;99670.22;;;3.26;100.00
76732;BME280;65656;51.130;13.658;2023-04-08T02:22:29;99663.81;;;3.27;100.00
76732;BME280;65656;51.130;13.658;2023-04-08T02:26:33;99668.41;;;3.33;100.00
76732;BME280;65656;51.130;13.658;2023-04-08T02:30:40;99664.66;;;3.34;100.00
76732;BME280;65656;51.130;13.658;2023-04-08T02:34:43;99669.69;;;3.38;100.00
76732;BME280;65656;51.130;13.658;2023-04-08T02:38:47;99667.56;;;3.33;100.00
76732;BME280;65656;51.130;13.658;2023-04-08T02:42:49;99673.44;;;3.37;100.00
76732;BME280;65656;51.130;13.658;2023-04-08T02:46:50;99677.22;;;3.42;100.00
76732;BME280;65656;51.130;13.658;2023-04-08T02:50:53;99677.22;;;3.42;100.00
76732;BME280;65656;51.130;13.658;2023-04-08T02:54:54;99679.75;;;3.44;100.00
76732;BME280;65656;51.130;13.658;2023-04-08T02:58:56;99677.50;;;3.54;100.00
76732;BME280;65656;51.130;13.658;2023-04-08T03:02:57;99687.88;;;3.44;100.00
76732;BME280;65656;51.130;13.658;2023-04-08T03:07:00;99686.44;;;3.48;100.00
76732;BME280;65656;51.130;13.658;2023-04-08T03:11:02;99677.91;;;3.51;100.00
76732;BME280;65656;51.130;13.658;2023-04-08T03:15:04;99680.22;;;3.54;100.00
76732;BME280;65656;51.130;13.658;2023-04-08T03:19:05;99687.25;;;3.48;100.00
76732;BME280;65656;51.130;13.658;2023-04-08T03:23:08;99675.78;;;3.46;100.00
76732;BME280;65656;51.130;13.658;2023-04-08T03:27:09;99684.34;;;3.50;100.00
76732;BME280;65656;51.130;13.658;2023-04-08T03:31:11;99680.22;;;3.54;100.00
76732;BME280;65656;51.130;13.658;2023-04-08T03:35:12;99689.38;;;3.53;100.00
76732;BME280;65656;51.130;13.658;2023-04-08T03:39:15;99682.34;;;3.58;100.00
76732;BME280;65656;51.130;13.658;2023-04-08T03:43:17;99685.22;;;3.57;100.00
76732;BME280;65656;51.130;13.658;2023-04-08T03:47:18;99688.16;;;3.55;100.00
76732;BME280;65656;51.130;13.658;2023-04-08T03:51:19;99689.38;;;3.53;100.00
76732;BME280;65656;51.130;13.658;2023-04-08T03:55:22;99697.75;;;3.58;100.00
76732;BME280;65656;51.130;13.658;2023-04-08T03:59:24;99688.00;;;3.63;100.00
76732;BME280;65656;51.130;13.658;2023-04-08T04:03:25;99686.91;;;3.58;100.00
76732;BME280;65656;51.130;13.658;2023-04-08T04:07:27;99684.81;;;3.53;100.00
76732;BME280;65656;51.130;13.658;2023-04-08T04:11:30;99688.16;;;3.55;100.00
76732;BME280;65656;51.130;13.658;2023-04-08T04:15:31;99691.91;;;3.54;100.00
76732;BME280;65656;51.130;13.658;2023-04-08T04:19:32;99693.19;;;3.58;100.00
76732;BME280;65656;51.130;13.658;2023-04-08T04:23:34;99701.91;;;3.54;100.00
76732;BME280;65656;51.130;13.658;2023-04-08T04:27:37;99704.41;;;3.55;100.00
76732;BME280;65656;51.130;13.658;2023-04-08T04:31:38;99705.22;;;3.56;100.00
76732;BME280;65656;51.130;13.658;2023-04-08T04:35:40;99717.38;;;3.60;100.00
76732;BME280;65656;51.130;13.658;2023-04-08T04:39:41;99703.63;;;3.61;100.00
76732;BME280;65656;51.130;13.658;2023-04-08T04:43:44;99710.28;;;3.59;100.00
76732;BME280;65656;51.130;13.658;2023-04-08T04:47:45;99723.25;;;3.70;100.00
76732;BME280;65656;51.130;13.658;2023-04-08T04:51:47;99722.00;;;3.66;100.00
76732;BME280;65656;51.130;13.658;2023-04-08T04:55:49;99722.00;;;3.66;100.00
76732;BME280;65656;51.130;13.658;2023-04-08T04:59:51;99731.53;;;3.62;100.00
76732;BME280;65656;51.130;13.658;2023-04-08T05:03:53;99734.50;;;3.67;100.00
76732;BME280;65656;51.130;13.658;2023-04-08T05:07:54;99727.78;;;3.63;100.00
76732;BME280;65656;51.130;13.658;2023-04-08T05:11:56;99749.47;;;3.63;100.00
76732;BME280;65656;51.130;13.658;2023-04-08T05:15:59;99744.94;;;3.70;100.00
76732;BME280;65656;51.130;13.658;2023-04-08T05:20:01;99739.53;;;3.70;100.00
76732;BME280;65656;51.130;13.658;2023-04-08T05:24:02;99739.78;;;3.75;100.00
76732;BME280;65656;51.130;13.658;2023-04-08T05:28:04;99740.00;;;3.80;100.00
76732;BME280;65656;51.130;13.658;2023-04-08T05:32:07;99747.13;;;3.81;100.00
76732;BME280;65656;51.130;13.658;2023-04-08T05:36:09;99751.94;;;3.86;100.00
76732;BME280;65656;51.130;13.658;2023-04-08T05:40:11;99750.47;;;3.83;100.00
76732;BME280;65656;51.130;13.658;2023-04-08T05:44:12;99751.34;;;3.90;100.00
76732;BME280;65656;51.130;13.658;2023-04-08T05:48:15;99754.84;;;3.84;100.00
76732;BME280;65656;51.130;13.658;2023-04-08T05:52:17;99751.09;;;3.85;100.00
76732;BME280;65656;51.130;13.658;2023-04-08T05:56:18;99758.44;;;3.91;100.00
76732;BME280;65656;51.130;13.658;2023-04-08T06:00:19;99763.69;;;4.00;100.00
76732;BME280;65656;51.130;13.658;2023-04-08T06:04:22;99775.97;;;3.96;100.00
76732;BME280;65656;51.130;13.658;2023-04-08T06:08:24;99777.25;;;4.00;100.00
76732;BME280;65656;51.130;13.658;2023-04-08T06:12:25;99780.22;;;4.05;100.00
76732;BME280;65656;51.130;13.658;2023-04-08T06:16:27;99784.81;;;4.11;100.00
76732;BME280;65656;51.130;13.658;2023-04-08T06:20:30;99780.91;;;4.20;100.00
76732;BME280;65656;51.130;13.658;2023-04-08T06:24:32;99785.31;;;4.21;100.00
76732;BME280;65656;51.130;13.658;2023-04-08T06:28:34;99778.72;;;4.37;100.00
76732;BME280;65656;51.130;13.658;2023-04-08T06:32:35;99789.56;;;4.37;100.00
76732;BME280;65656;51.130;13.658;2023-04-08T06:36:38;99795.00;;;4.43;100.00
76732;BME280;65656;51.130;13.658;2023-04-08T06:40:40;99796.25;;;4.41;100.00
76732;BME280;65656;51.130;13.658;2023-04-08T06:44:41;99806.06;;;4.42;100.00
76732;BME280;65656;51.130;13.658;2023-04-08T06:48:43;99803.00;;;4.52;100.00
76732;BME280;65656;51.130;13.658;2023-04-08T06:52:45;99807.19;;;4.54;100.00
76732;BME280;65656;51.130;13.658;2023-04-08T06:56:47;99815.16;;;4.62;100.00
76732;BME280;65656;51.130;13.658;2023-04-08T07:00:48;99814.31;;;4.62;100.00
76732;BME280;65656;51.130;13.658;2023-04-08T07:04:50;99819.34;;;4.65;100.00
76732;BME280;65656;51.130;13.658;2023-04-08T07:08:53;99821.00;;;4.66;100.00
76732;BME280;65656;51.130;13.658;2023-04-08T07:12:54;99822.53;;;4.75;100.00
76732;BME280;65656;51.130;13.658;2023-04-08T07:16:55;99827.72;;;4.70;100.00
76732;BME280;65656;51.130;13.658;2023-04-08T07:20:57;99831.06;;;4.72;100.00
76732;BME280;65656;51.130;13.658;2023-04-08T07:25:00;99835.72;;;4.85;100.00
76732;BME280;65656;51.130;13.658;2023-04-08T07:29:02;99844.88;;;4.77;100.00
76732;BME280;65656;51.130;13.658;2023-04-08T07:33:03;99846.13;;;4.81;100.00
76732;BME280;65656;51.130;13.658;2023-04-08T07:37:05;99853.63;;;4.79;100.00
76732;BME280;65656;51.130;13.658;2023-04-08T07:41:08;99855.13;;;4.88;100.00
76732;BME280;65656;51.130;13.658;2023-04-08T07:45:09;99861.69;;;5.00;100.00
76732;BME280;65656;51.130;13.658;2023-04-08T07:49:11;99862.53;;;5.08;100.00
76732;BME280;65656;51.130;13.658;2023-04-08T07:53:12;99876.13;;;5.21;100.00
76732;BME280;65656;51.130;13.658;2023-04-08T07:57:15;99880.56;;;5.22;100.00
76732;BME280;65656;51.130;13.658;2023-04-08T08:01:18;99882.44;;;5.28;100.00
76732;BME280;65656;51.130;13.658;2023-04-08T08:05:20;99889.41;;;5.50;100.00
76732;BME280;65656;51.130;13.658;2023-04-08T08:09:22;99893.19;;;5.56;100.00
76732;BME280;65656;51.130;13.658;2023-04-08T08:13:24;99886.44;;;5.32;100.00
76732;BME280;65656;51.130;13.658;2023-04-08T08:17:26;99898.56;;;5.36;100.00
76732;BME280;65656;51.130;13.658;2023-04-08T08:21:28;99900.25;;;5.37;98.79
76732;BME280;65656;51.130;13.658;2023-04-08T08:25:30;99907.84;;;5.62;99.22
76732;BME280;65656;51.130;13.658;2023-04-08T08:29:32;99899.28;;;5.78;97.48
76732;BME280;65656;51.130;13.658;2023-04-08T08:33:34;99913.75;;;5.98;97.70
76732;BME280;65656;51.130;13.658;2023-04-08T08:37:36;99906.81;;;5.89;95.50
76732;BME280;65656;51.130;13.658;2023-04-08T08:41:37;99911.19;;;5.90;96.39
76732;BME280;65656;51.130;13.658;2023-04-08T08:45:40;99922.94;;;5.84;95.87
76732;BME280;65656;51.130;13.658;2023-04-08T08:49:42;99919.78;;;5.87;95.16
76732;BME280;65656;51.130;13.658;2023-04-08T08:53:44;99929.66;;;5.95;96.58
76732;BME280;65656;51.130;13.658;2023-04-08T08:57:50;99932.19;;;6.03;97.46
76732;BME280;65656;51.130;13.658;2023-04-08T09:01:53;99931.75;;;6.19;94.66
76732;BME280;65656;51.130;13.658;2023-04-08T09:05:56;99935.13;;;6.28;92.39
76732;BME280;65656;51.130;13.658;2023-04-08T09:09:58;99938.88;;;6.27;93.20
76732;BME280;65656;51.130;13.658;2023-04-08T09:14:00;99941.41;;;6.35;91.41
76732;BME280;65656;51.130;13.658;2023-04-08T09:18:20;99951.00;;;6.44;90.98
76732;BME280;65656;51.130;13.658;2023-04-08T09:22:21;99955.22;;;6.40;90.56
76732;BME280;65656;51.130;13.658;2023-04-08T09:26:23;99960.00;;;6.38;93.89
76732;BME280;65656;51.130;13.658;2023-04-08T09:30:26;99968.19;;;6.38;92.75
76732;BME280;65656;51.130;13.658;2023-04-08T09:34:29;99969.00;;;6.45;90.14
76732;BME280;65656;51.130;13.658;2023-04-08T09:38:30;99969.84;;;6.65;93.31
76732;BME280;65656;51.130;13.658;2023-04-08T09:42:33;99973.22;;;6.54;90.22
76732;BME280;65656;51.130;13.658;2023-04-08T09:46:39;99977.84;;;6.47;89.65
76732;BME280;65656;51.130;13.658;2023-04-08T09:50:49;99978.22;;;6.44;91.47
76732;BME280;65656;51.130;13.658;2023-04-08T09:54:52;99982.22;;;6.35;91.91
76732;BME280;65656;51.130;13.658;2023-04-08T09:58:58;99985.56;;;6.37;91.68
76732;BME280;65656;51.130;13.658;2023-04-08T10:03:05;99977.19;;;6.45;90.98
76732;BME280;65656;51.130;13.658;2023-04-08T10:07:13;99969.88;;;6.39;88.86
76732;BME280;65656;51.130;13.658;2023-04-08T10:11:15;99978.88;;;6.46;89.00
76732;BME280;65656;51.130;13.658;2023-04-08T10:15:27;99979.47;;;6.61;89.39
76732;BME280;65656;51.130;13.658;2023-04-08T10:19:36;99984.09;;;6.67;86.05
76732;BME280;65656;51.130;13.658;2023-04-08T10:23:56;99981.50;;;6.99;88.02
76732;BME280;65656;51.130;13.658;2023-04-08T10:27:58;99984.47;;;6.97;85.81
76732;BME280;65656;51.130;13.658;2023-04-08T10:32:00;99980.28;;;6.95;83.81
76732;BME280;65656;51.130;13.658;2023-04-08T10:36:08;99983.59;;;7.10;86.29
76732;BME280;65656;51.130;13.658;2023-04-08T10:40:19;99992.84;;;6.96;85.13
76732;BME280;65656;51.130;13.658;2023-04-08T10:44:21;99989.91;;;6.91;84.36
76732;BME280;65656;51.130;13.658;2023-04-08T10:48:24;99988.63;;;7.00;83.36
76732;BME280;65656;51.130;13.658;2023-04-08T10:52:26;99984.44;;;7.04;86.82
76732;BME280;65656;51.130;13.658;2023-04-08T10:56:29;99986.59;;;6.76;84.46
76732;BME280;65656;51.130;13.658;2023-04-08T11:00:32;99986.81;;;6.74;86.10
76732;BME280;65656;51.130;13.658;2023-04-08T11:04:40;99996.19;;;6.91;86.86
76732;BME280;65656;51.130;13.658;2023-04-08T11:08:42;99989.06;;;7.10;86.95
76732;BME280;65656;51.130;13.658;2023-04-08T11:12:45;99990.78;;;6.85;86.23
76732;BME280;65656;51.130;13.658;2023-04-08T11:16:46;99998.97;;;6.72;87.03
76732;BME280;65656;51.130;13.658;2023-04-08T11:20:49;99996.25;;;6.58;88.84
76732;BME280;65656;51.130;13.658;2023-04-08T11:24:51;99993.31;;;6.53;89.40
76732;BME280;65656;51.130;13.658;2023-04-08T11:28:55;100009.84;;;6.58;88.54
76732;BME280;65656;51.130;13.658;2023-04-08T11:32:57;100004.63;;;6.63;89.04
76732;BME280;65656;51.130;13.658;2023-04-08T11:36:59;100011.31;;;6.61;87.62
76732;BME280;65656;51.130;13.658;2023-04-08T11:41:00;100005.03;;;6.60;86.79
76732;BME280;65656;51.130;13.658;2023-04-08T11:45:09;100018.03;;;6.58;88.17
76732;BME280;65656;51.130;13.658;2023-04-08T11:49:10;100014.66;;;6.43;86.92
76732;BME280;65656;51.130;13.658;2023-04-08T11:53:17;100007.97;;;6.26;89.30
76732;BME280;65656;51.130;13.658;2023-04-08T11:57:27;100022.16;;;6.14;91.57
76732;BME280;65656;51.130;13.658;2023-04-08T12:01:30;100029.69;;;6.12;92.44
76732;BME280;65656;51.130;13.658;2023-04-08T12:05:33;100033.25;;;6.00;91.65
76732;BME280;65656;51.130;13.658;2023-04-08T12:09:34;100031.78;;;6.04;91.93
76732;BME280;65656;51.130;13.658;2023-04-08T12:13:36;100038.88;;;5.98;90.96
76732;BME280;65656;51.130;13.658;2023-04-08T12:17:39;100030.50;;;5.93;91.07
76732;BME280;65656;51.130;13.658;2023-04-08T12:21:40;100028.84;;;6.05;92.97
76732;BME280;65656;51.130;13.658;2023-04-08T12:25:42;100041.03;;;6.23;92.99
76732;BME280;65656;51.130;13.658;2023-04-08T12:29:44;100040.38;;;6.21;91.13
76732;BME280;65656;51.130;13.658;2023-04-08T12:33:47;100052.75;;;6.30;92.39
76732;BME280;65656;51.130;13.658;2023-04-08T12:37:48;100047.53;;;6.41;90.60
76732;BME280;65656;51.130;13.658;2023-04-08T12:41:50;100042.28;;;6.27;89.83
76732;BME280;65656;51.130;13.658;2023-04-08T12:45:52;100053.00;;;6.48;92.51
76732;BME280;65656;51.130;13.658;2023-04-08T12:49:55;100043.94;;;6.14;91.88
76732;BME280;65656;51.130;13.658;2023-04-08T12:53:56;100053.13;;;6.00;93.79
76732;BME280;65656;51.130;13.658;2023-04-08T12:57:58;100053.31;;;5.92;96.19
76732;BME280;65656;51.130;13.658;2023-04-08T13:02:00;100057.09;;;5.56;96.58
76732;BME280;65656;51.130;13.658;2023-04-08T13:06:03;100067.19;;;5.28;99.05
76732;BME280;65656;51.130;13.658;2023-04-08T13:10:06;100075.06;;;5.16;99.10
76732;BME280;65656;51.130;13.658;2023-04-08T13:14:08;100067.75;;;5.17;99.29
76732;BME280;65656;51.130;13.658;2023-04-08T13:18:09;100074.88;;;5.18;99.12
76732;BME280;65656;51.130;13.658;2023-04-08T13:22:12;100073.69;;;4.99;98.79
76732;BME280;65656;51.130;13.658;2023-04-08T13:26:14;100073.88;;;4.97;99.45
76732;BME280;65656;51.130;13.658;2023-04-08T13:30:15;100072.78;;;5.20;100.00
76732;BME280;65656;51.130;13.658;2023-04-08T13:34:17;100075.09;;;5.57;96.45
76732;BME280;65656;51.130;13.658;2023-04-08T13:38:20;100070.44;;;5.51;96.06
76732;BME280;65656;51.130;13.658;2023-04-08T13:42:22;100066.69;;;5.94;93.53
76732;BME280;65656;51.130;13.658;2023-04-08T13:46:24;100069.44;;;6.00;90.21
76732;BME280;65656;51.130;13.658;2023-04-08T13:50:25;100076.09;;;5.91;90.20
76732;BME280;65656;51.130;13.658;2023-04-08T13:54:29;100075.13;;;6.19;88.23
76732;BME280;65656;51.130;13.658;2023-04-08T13:58:30;100076.88;;;6.66;86.94
76732;BME280;65656;51.130;13.658;2023-04-08T14:02:32;100070.97;;;6.36;86.03
76732;BME280;65656;51.130;13.658;2023-04-08T14:06:33;100074.56;;;6.43;87.24
76732;BME280;65656;51.130;13.658;2023-04-08T14:10:36;100077.94;;;6.58;86.51
76732;BME280;65656;51.130;13.658;2023-04-08T14:14:38;100087.53;;;6.41;87.30
76732;BME280;65656;51.130;13.658;2023-04-08T14:18:39;100080.81;;;6.37;87.81
76732;BME280;65656;51.130;13.658;2023-04-08T14:22:41;100083.91;;;6.07;86.76
76732;BME280;65656;51.130;13.658;2023-04-08T14:26:44;100089.09;;;5.96;89.47
76732;BME280;65656;51.130;13.658;2023-04-08T14:30:45;100085.41;;;5.69;89.94
76732;BME280;65656;51.130;13.658;2023-04-08T14:34:47;100084.16;;;5.71;90.97
76732;BME280;65656;51.130;13.658;2023-04-08T14:38:49;100095.25;;;5.70;90.33
76732;BME280;65656;51.130;13.658;2023-04-08T14:42:52;100096.03;;;5.64;88.59
76732;BME280;65656;51.130;13.658;2023-04-08T14:46:53;100089.34;;;5.66;91.07
76732;BME280;65656;51.130;13.658;2023-04-08T14:50:55;100087.16;;;5.48;92.37
76732;BME280;65656;51.130;13.658;2023-04-08T14:54:57;100093.84;;;5.46;93.58
76732;BME280;65656;51.130;13.658;2023-04-08T14:58:59;100103.47;;;5.48;92.32
76732;BME280;65656;51.130;13.658;2023-04-08T15:03:01;100094.25;;;5.43;90.79
76732;BME280;65656;51.130;13.658;2023-04-08T15:07:03;100091.72;;;5.41;89.36
76732;BME280;65656;51.130;13.658;2023-04-08T15:11:04;100102.41;;;5.43;89.61
76732;BME280;65656;51.130;13.658;2023-04-08T15:15:08;100106.00;;;5.50;90.70
76732;BME280;65656;51.130;13.658;2023-04-08T15:19:10;100101.00;;;5.53;88.37
76732;BME280;65656;51.130;13.658;2023-04-08T15:23:11;100107.31;;;5.61;89.54
76732;BME280;65656;51.130;13.658;2023-04-08T15:27:13;100111.22;;;5.51;89.52
76732;BME280;65656;51.130;13.658;2023-04-08T15:31:16;100112.59;;;5.34;89.99
76732;BME280;65656;51.130;13.658;2023-04-08T15:35:17;100104.34;;;5.21;89.35
76732;BME280;65656;51.130;13.658;2023-04-08T15:39:19;100113.47;;;5.13;88.32
76732;BME280;65656;51.130;13.658;2023-04-08T15:43:21;100122.88;;;5.11;88.65
76732;BME280;65656;51.130;13.658;2023-04-08T15:47:23;100112.78;;;5.04;89.01
76732;BME280;65656;51.130;13.658;2023-04-08T15:51:25;100130.94;;;5.25;89.86
76732;BME280;65656;51.130;13.658;2023-04-08T15:55:27;100128.41;;;5.24;90.15
76732;BME280;65656;51.130;13.658;2023-04-08T15:59:28;100126.72;;;5.23;88.42
76732;BME280;65656;51.130;13.658;2023-04-08T16:03:31;100132.66;;;5.33;88.96
76732;BME280;65656;51.130;13.658;2023-04-08T16:07:33;100137.44;;;5.31;86.53
76732;BME280;65656;51.130;13.658;2023-04-08T16:11:34;100151.41;;;5.28;88.33
76732;BME280;65656;51.130;13.658;2023-04-08T16:15:36;100153.91;;;5.23;89.75
76732;BME280;65656;51.130;13.658;2023-04-08T16:19:39;100157.81;;;5.14;87.75
76732;BME280;65656;51.130;13.658;2023-04-08T16:23:40;100159.44;;;5.08;89.45
76732;BME280;65656;51.130;13.658;2023-04-08T16:27:42;100154.19;;;5.07;89.13
76732;BME280;65656;51.130;13.658;2023-04-08T16:31:43;100157.91;;;5.06;88.74
76732;BME280;65656;51.130;13.658;2023-04-08T16:35:46;100160.41;;;5.00;86.83
76732;BME280;65656;51.130;13.658;2023-04-08T16:39:47;100158.66;;;4.93;90.03
76732;BME280;65656;51.130;13.658;2023-04-08T16:43:50;100160.78;;;4.97;87.98
76732;BME280;65656;51.130;13.658;2023-04-08T16:47:51;100171.16;;;4.87;88.36
76732;BME280;65656;51.130;13.658;2023-04-08T16:51:54;100169.88;;;4.83;90.35
76732;BME280;65656;51.130;13.658;2023-04-08T16:55:56;100175.28;;;4.83;89.23
76732;BME280;65656;51.130;13.658;2023-04-08T16:59:57;100176.13;;;4.84;89.46
76732;BME280;65656;51.130;13.658;2023-04-08T17:03:59;100178.50;;;4.72;89.76
76732;BME280;65656;51.130;13.658;2023-04-08T17:08:02;100185.63;;;4.73;89.27
76732;BME280;65656;51.130;13.658;2023-04-08T17:12:04;100187.69;;;4.71;89.74
76732;BME280;65656;51.130;13.658;2023-04-08T17:16:08;100191.44;;;4.70;89.97
76732;BME280;65656;51.130;13.658;2023-04-08T17:20:11;100201.00;;;4.66;90.13
76732;BME280;65656;51.130;13.658;2023-04-08T17:24:14;100207.38;;;4.58;89.99
76732;BME280;65656;51.130;13.658;2023-04-08T17:28:15;100209.53;;;4.63;89.36
76732;BME280;65656;51.130;13.658;2023-04-08T17:32:17;100216.38;;;4.59;89.49
76732;BME280;65656;51.130;13.658;2023-04-08T17:36:18;100214.25;;;4.54;90.87
76732;BME280;65656;51.130;13.658;2023-04-08T17:40:21;100213.94;;;4.64;89.73
76732;BME280;65656;51.130;13.658;2023-04-08T17:44:23;100222.66;;;4.59;89.24
76732;BME280;65656;51.130;13.658;2023-04-08T17:48:24;100217.78;;;4.55;90.30
76732;BME280;65656;51.130;13.658;2023-04-08T17:52:25;100219.19;;;4.51;91.32
76732;BME280;65656;51.130;13.658;2023-04-08T17:56:28;100221.25;;;4.48;90.16
76732;BME280;65656;51.130;13.658;2023-04-08T18:00:30;100230.75;;;4.38;91.91
76732;BME280;65656;51.130;13.658;2023-04-08T18:04:31;100241.97;;;4.35;90.31
76732;BME280;65656;51.130;13.658;2023-04-08T18:08:33;100252.75;;;4.28;91.97
76732;BME280;65656;51.130;13.658;2023-04-08T18:12:35;100251.44;;;4.24;92.28
76732;BME280;65656;51.130;13.658;2023-04-08T18:16:37;100251.84;;;4.21;92.06
76732;BME280;65656;51.130;13.658;2023-04-08T18:20:38;100260.53;;;4.16;92.33
76732;BME280;65656;51.130;13.658;2023-04-08T18:24:40;100265.09;;;4.16;92.89
76732;BME280;65656;51.130;13.658;2023-04-08T18:28:43;100270.03;;;4.12;92.30
76732;BME280;65656;51.130;13.658;2023-04-08T18:32:44;100276.16;;;4.00;93.79
76732;BME280;65656;51.130;13.658;2023-04-08T18:36:46;100287.72;;;3.94;94.55
76732;BME280;65656;51.130;13.658;2023-04-08T18:40:47;100277.44;;;3.89;93.98
76732;BME280;65656;51.130;13.658;2023-04-08T18:44:50;100284.44;;;3.69;94.95
76732;BME280;65656;51.130;13.658;2023-04-08T18:48:51;100286.47;;;3.52;95.55
76732;BME280;65656;51.130;13.658;2023-04-08T18:52:53;100287.69;;;3.64;94.98
76732;BME280;65656;51.130;13.658;2023-04-08T18:56:57;100290.66;;;3.54;95.38
76732;BME280;65656;51.130;13.658;2023-04-08T19:00:59;100293.41;;;3.31;96.55
76732;BME280;65656;51.130;13.658;2023-04-08T19:05:01;100298.44;;;3.34;96.44
76732;BME280;65656;51.130;13.658;2023-04-08T19:09:02;100298.69;;;3.02;97.58
76732;BME280;65656;51.130;13.658;2023-04-08T19:13:04;100295.97;;;2.79;98.80
76732;BME280;65656;51.130;13.658;2023-04-08T19:17:07;100305.69;;;2.65;100.00
76732;BME280;65656;51.130;13.658;2023-04-08T19:21:08;100305.28;;;2.76;99.68
76732;BME280;65656;51.130;13.658;2023-04-08T19:25:11;100303.31;;;2.62;100.00
76732;BME280;65656;51.130;13.658;2023-04-08T19:29:13;100295.59;;;2.59;100.00
76732;BME280;65656;51.130;13.658;2023-04-08T19:33:15;100306.00;;;2.70;100.00
76732;BME280;65656;51.130;13.658;2023-04-08T19:37:17;100301.28;;;2.64;100.00
76732;BME280;65656;51.130;13.658;2023-04-08T19:41:18;100307.06;;;2.61;100.00
76732;BME280;65656;51.130;13.658;2023-04-08T19:45:20;100301.03;;;2.51;100.00
76732;BME280;65656;51.130;13.658;2023-04-08T19:49:23;100297.41;;;2.28;100.00
76732;BME280;65656;51.130;13.658;2023-04-08T19:53:25;100301.50;;;2.15;100.00
76732;BME280;65656;51.130;13.658;2023-04-08T19:57:26;100297.78;;;2.16;100.00
76732;BME280;65656;51.130;13.658;2023-04-08T20:01:28;100302.06;;;2.03;100.00
76732;BME280;65656;51.130;13.658;2023-04-08T20:05:31;100307.31;;;1.96;100.00
76732;BME280;65656;51.130;13.658;2023-04-08T20:09:33;100316.31;;;1.80;100.00
76732;BME280;65656;51.130;13.658;2023-04-08T20:13:34;100315.78;;;1.85;100.00
76732;BME280;65656;51.130;13.658;2023-04-08T20:17:36;100316.78;;;1.84;100.00
76732;BME280;65656;51.130;13.658;2023-04-08T20:21:39;100314.31;;;1.58;100.00
76732;BME280;65656;51.130;13.658;2023-04-08T20:25:40;100325.63;;;1.45;100.00
76732;BME280;65656;51.130;13.658;2023-04-08T20:29:41;100323.44;;;1.32;100.00
76732;BME280;65656;51.130;13.658;2023-04-08T20:33:43;100327.28;;;1.22;100.00
76732;BME280;65656;51.130;13.658;2023-04-08T20:37:46;100315.81;;;1.20;100.00
76732;BME280;65656;51.130;13.658;2023-04-08T20:41:47;100319.88;;;1.32;100.00
76732;BME280;65656;51.130;13.658;2023-04-08T20:45:49;100309.22;;;1.38;100.00
76732;BME280;65656;51.130;13.658;2023-04-08T20:49:50;100310.78;;;1.33;100.00
76732;BME280;65656;51.130;13.658;2023-04-08T20:53:53;100302.31;;;1.28;100.00
76732;BME280;65656;51.130;13.658;2023-04-08T20:57:54;100310.25;;;1.21;100.00
76732;BME280;65656;51.130;13.658;2023-04-08T21:01:56;100307.00;;;0.93;100.00
76732;BME280;65656;51.130;13.658;2023-04-08T21:05:57;100318.47;;;0.79;100.00